createdAt,value
2018-11-06T00:02:15.984Z,99541.50
2018-11-06T00:04:49.250Z,99538.54
2018-11-06T00:07:17.227Z,99538.36
2018-11-06T00:09:45.254Z,99530.90
2018-11-06T00:12:13.359Z,99530.36
2018-11-06T00:14:41.529Z,99531.31
2018-11-06T00:17:09.561Z,99528.33
2018-11-06T00:19:37.514Z,99535.93
2018-11-06T00:22:05.845Z,99530.25
2018-11-06T00:24:33.854Z,99540.03
2018-11-06T00:27:01.931Z,99533.89
2018-11-06T00:29:29.880Z,99530.80
2018-11-06T00:31:58.172Z,99526.50
2018-11-06T00:34:26.137Z,99526.15
2018-11-06T00:36:54.428Z,99524.22
2018-11-06T00:39:22.731Z,99521.31
2018-11-06T00:41:50.734Z,99512.97
2018-11-06T00:44:18.769Z,99502.27
2018-11-06T00:46:47.101Z,99509.05
2018-11-06T00:49:15.144Z,99504.87
2018-11-06T00:51:43.294Z,99513.22
2018-11-06T00:54:11.195Z,99519.34
2018-11-06T00:56:39.280Z,99520.28
2018-11-06T00:59:07.418Z,99515.81
2018-11-06T01:01:35.361Z,99517.62
2018-11-06T01:04:08.615Z,99518.60
2018-11-06T01:06:36.674Z,99527.52
2018-11-06T01:09:06.300Z,99526.94
2018-11-06T01:11:34.284Z,99525.52
2018-11-06T01:14:02.431Z,99523.95
2018-11-06T01:16:30.431Z,99530.48
2018-11-06T01:18:58.442Z,99530.14
2018-11-06T01:21:26.369Z,99544.80
2018-11-06T01:23:54.399Z,99536.51
2018-11-06T01:26:22.520Z,99529.03
2018-11-06T01:28:50.553Z,99537.80
2018-11-06T01:31:18.569Z,99538.86
2018-11-06T01:33:46.852Z,99542.78
2018-11-06T01:36:14.929Z,99549.92
2018-11-06T01:38:43.091Z,99553.02
2018-11-06T01:41:11.036Z,99550.98
2018-11-06T01:43:39.106Z,99552.73
2018-11-06T01:46:07.378Z,99562.48
2018-11-06T01:48:35.399Z,99555.14
2018-11-06T01:51:03.416Z,99549.44
2018-11-06T01:53:31.441Z,99544.80
2018-11-06T01:55:59.516Z,99550.47
2018-11-06T01:58:27.634Z,99540.84
2018-11-06T02:00:55.597Z,99539.52
2018-11-06T02:03:25.132Z,99535.86
2018-11-06T02:05:53.244Z,99538.34
2018-11-06T02:08:21.301Z,99531.81
2018-11-06T02:10:49.349Z,99531.23
2018-11-06T02:13:17.471Z,99527.80
2018-11-06T02:15:45.543Z,99527.08
2018-11-06T02:18:13.589Z,99525.67
2018-11-06T02:20:41.556Z,99530.21
2018-11-06T02:23:09.609Z,99534.26
2018-11-06T02:25:37.599Z,99535.80
2018-11-06T02:28:05.716Z,99542.44
2018-11-06T02:30:33.691Z,99537.94
2018-11-06T02:33:01.707Z,99539.10
2018-11-06T02:35:29.680Z,99536.02
2018-11-06T02:37:57.773Z,99542.19
2018-11-06T02:40:25.704Z,99544.66
2018-11-06T02:42:53.789Z,99544.67
2018-11-06T02:45:21.749Z,99547.07
2018-11-06T02:47:49.861Z,99538.38
2018-11-06T02:50:17.876Z,99545.94
2018-11-06T02:52:45.853Z,99543.31
2018-11-06T02:55:14.412Z,99546.31
2018-11-06T02:57:42.865Z,99544.84
2018-11-06T03:00:13.778Z,99552.41
2018-11-06T03:02:42.206Z,99546.14
2018-11-06T03:05:10.689Z,99554.95
2018-11-06T03:07:38.889Z,99557.43
2018-11-06T03:10:08.095Z,99561.19
2018-11-06T03:12:36.105Z,99560.81
2018-11-06T03:15:04.664Z,99559.87
2018-11-06T03:17:32.685Z,99561.70
2018-11-06T03:20:00.762Z,99558.08
2018-11-06T03:22:28.766Z,99566.18
2018-11-06T03:24:56.900Z,99561.63
2018-11-06T03:27:24.943Z,99563.38
2018-11-06T03:29:53.167Z,99561.75
2018-11-06T03:32:21.180Z,99565.16
2018-11-06T03:34:49.260Z,99563.02
2018-11-06T03:37:17.235Z,99566.63
2018-11-06T03:39:45.450Z,99569.11
2018-11-06T03:42:13.527Z,99573.47
2018-11-06T03:44:41.542Z,99578.53
2018-11-06T03:47:09.527Z,99575.67
2018-11-06T03:49:37.620Z,99572.84
2018-11-06T03:52:05.850Z,99573.97
2018-11-06T03:54:33.860Z,99576.33
2018-11-06T03:57:01.810Z,99585.62
2018-11-06T03:59:29.885Z,99584.17
2018-11-06T04:01:57.906Z,99581.59
2018-11-06T04:04:26.027Z,99584.58
2018-11-06T04:06:54.060Z,99584.80
2018-11-06T04:09:22.120Z,99588.36
2018-11-06T04:11:50.110Z,99599.28
2018-11-06T04:14:18.102Z,99602.39
2018-11-06T04:16:46.082Z,99602.91
2018-11-06T04:19:14.131Z,99600.13
2018-11-06T04:21:42.126Z,99598.77
2018-11-06T04:24:11.728Z,99594.80
2018-11-06T04:26:40.389Z,99594.20
2018-11-06T04:29:09.104Z,99598.33
2018-11-06T04:31:37.945Z,99596.41
2018-11-06T04:34:06.515Z,99603.50
2018-11-06T04:36:34.527Z,99605.33
2018-11-06T04:39:02.721Z,99600.86
2018-11-06T04:41:30.677Z,99599.34
2018-11-06T04:43:58.601Z,99601.23
2018-11-06T04:46:26.617Z,99603.81
2018-11-06T04:48:54.571Z,99608.51
2018-11-06T04:51:22.605Z,99605.83
2018-11-06T04:53:53.142Z,99609.27
2018-11-06T04:56:21.150Z,99604.52
2018-11-06T04:58:49.143Z,99601.41
2018-11-06T05:01:17.167Z,99599.71
2018-11-06T05:03:46.567Z,99599.11
2018-11-06T05:06:15.616Z,99592.59
2018-11-06T05:08:43.613Z,99585.59
2018-11-06T05:11:11.648Z,99590.95
2018-11-06T05:13:39.760Z,99589.52
2018-11-06T05:16:07.820Z,99593.81
2018-11-06T05:18:35.937Z,99586.10
2018-11-06T05:21:04.654Z,99587.81
2018-11-06T05:23:32.810Z,99589.34
2018-11-06T05:26:01.074Z,99592.65
2018-11-06T05:28:29.325Z,99593.84
2018-11-06T05:30:57.550Z,99594.56
2018-11-06T05:33:26.211Z,99596.12
2018-11-06T05:35:54.471Z,99590.28
2018-11-06T05:38:22.722Z,99589.94
2018-11-06T05:40:59.345Z,99580.90
2018-11-06T05:43:27.560Z,99583.50
2018-11-06T05:45:56.079Z,99587.08
2018-11-06T05:48:24.199Z,99590.28
2018-11-06T05:50:52.463Z,99586.12
2018-11-06T05:53:20.771Z,99594.56
2018-11-06T05:55:49.379Z,99591.58
2018-11-06T05:58:17.740Z,99597.86
2018-11-06T06:00:46.233Z,99615.05
2018-11-06T06:03:14.379Z,99620.00
2018-11-06T06:05:42.779Z,99624.87
2018-11-06T06:08:10.993Z,99623.41
2018-11-06T06:10:39.699Z,99625.22
2018-11-06T06:13:08.179Z,99626.06
2018-11-06T06:15:36.532Z,99616.86
2018-11-06T06:18:04.912Z,99617.34
2018-11-06T06:20:33.212Z,99622.55
2018-11-06T06:23:01.477Z,99620.08
2018-11-06T06:25:29.846Z,99623.15
2018-11-06T06:27:58.116Z,99629.77
2018-11-06T06:30:26.426Z,99628.13
2018-11-06T06:32:54.776Z,99640.23
2018-11-06T06:35:23.117Z,99646.60
2018-11-06T06:37:51.416Z,99645.17
2018-11-06T06:40:19.616Z,99651.22
2018-11-06T06:42:48.085Z,99652.98
2018-11-06T06:45:17.609Z,99647.97
2018-11-06T06:47:45.824Z,99655.52
2018-11-06T06:50:15.216Z,99652.15
2018-11-06T06:52:44.059Z,99650.78
2018-11-06T06:55:13.373Z,99649.16
2018-11-06T06:57:42.644Z,99657.59
2018-11-06T07:00:13.324Z,99656.59
2018-11-06T07:02:41.706Z,99653.09
2018-11-06T07:05:11.544Z,99652.84
2018-11-06T07:07:41.567Z,99660.78
2018-11-06T07:10:11.549Z,99656.28
2018-11-06T07:12:40.449Z,99665.33
2018-11-06T07:15:11.321Z,99669.88
2018-11-06T07:17:39.628Z,99663.72
2018-11-06T07:20:11.153Z,99657.77
2018-11-06T07:22:39.460Z,99660.28
2018-11-06T07:25:08.983Z,99667.05
2018-11-06T07:27:37.360Z,99678.16
2018-11-06T07:30:07.830Z,99682.17
2018-11-06T07:32:36.093Z,99675.81
2018-11-06T07:35:05.440Z,99685.73
2018-11-06T07:37:33.689Z,99686.91
2018-11-06T07:40:02.309Z,99691.77
2018-11-06T07:42:30.526Z,99688.08
2018-11-06T07:44:58.769Z,99692.48
2018-11-06T07:47:27.101Z,99700.16
2018-11-06T07:49:55.429Z,99699.05
2018-11-06T07:52:23.668Z,99702.13
2018-11-06T07:54:51.866Z,99706.99
2018-11-06T07:57:20.045Z,99719.47
2018-11-06T07:59:48.725Z,99713.23
2018-11-06T08:02:17.026Z,99715.25
2018-11-06T08:04:45.266Z,99721.77
2018-11-06T08:07:13.557Z,99717.20
2018-11-06T08:09:41.802Z,99723.80
2018-11-06T08:12:10.160Z,99710.42
2018-11-06T08:14:38.410Z,99710.98
2018-11-06T08:17:06.926Z,99712.82
2018-11-06T08:19:35.066Z,99716.41
2018-11-06T08:22:03.886Z,99716.97
2018-11-06T08:24:32.106Z,99711.34
2018-11-06T08:27:00.351Z,99708.98
2018-11-06T08:29:28.468Z,99708.55
2018-11-06T08:31:57.000Z,99702.33
2018-11-06T08:34:24.966Z,99699.66
2018-11-06T08:36:53.312Z,99695.09
2018-11-06T08:39:21.606Z,99694.31
2018-11-06T08:41:49.724Z,99696.02
2018-11-06T08:44:17.999Z,99699.19
2018-11-06T08:46:46.118Z,99701.27
2018-11-06T08:49:14.413Z,99698.15
2018-11-06T08:51:42.666Z,99705.69
2018-11-06T08:54:10.889Z,99714.59
2018-11-06T08:56:39.026Z,99722.22
2018-11-06T08:59:07.315Z,99718.28
2018-11-06T09:01:35.566Z,99708.31
2018-11-06T09:04:03.834Z,99711.06
2018-11-06T09:06:31.975Z,99710.68
2018-11-06T09:09:00.337Z,99718.98
2018-11-06T09:11:28.354Z,99733.05
2018-11-06T09:13:56.597Z,99730.00
2018-11-06T09:16:24.740Z,99732.09
2018-11-06T09:18:52.977Z,99723.36
2018-11-06T09:21:21.208Z,99728.08
2018-11-06T09:23:49.369Z,99721.58
2018-11-06T09:26:17.589Z,99713.20
2018-11-06T09:28:45.869Z,99711.02
2018-11-06T09:31:14.224Z,99712.95
2018-11-06T09:33:42.464Z,99713.20
2018-11-06T09:36:10.673Z,99711.69
2018-11-06T09:38:38.993Z,99709.42
2018-11-06T09:41:07.249Z,99713.57
2018-11-06T09:43:35.673Z,99717.92
2018-11-06T09:46:03.993Z,99716.53
2018-11-06T09:48:32.345Z,99714.97
2018-11-06T09:51:00.605Z,99709.63
2018-11-06T09:53:28.906Z,99712.71
2018-11-06T09:55:57.167Z,99708.16
2018-11-06T09:58:25.465Z,99704.17
2018-11-06T10:00:53.705Z,99703.16
2018-11-06T10:03:22.052Z,99699.75
2018-11-06T10:05:50.253Z,99690.53
2018-11-06T10:08:18.653Z,99692.70
2018-11-06T10:10:46.861Z,99692.89
2018-11-06T10:13:15.045Z,99694.14
2018-11-06T10:15:43.355Z,99692.91
2018-11-06T10:18:11.561Z,99690.03
2018-11-06T10:20:39.690Z,99686.68
2018-11-06T10:23:07.942Z,99684.06
2018-11-06T10:25:36.149Z,99684.47
2018-11-06T10:28:04.869Z,99683.31
2018-11-06T10:30:33.398Z,99681.83
2018-11-06T10:33:01.654Z,99680.52
2018-11-06T10:35:29.904Z,99677.66
2018-11-06T10:37:58.221Z,99672.55
2018-11-06T10:40:26.516Z,99681.23
2018-11-06T10:42:54.646Z,99680.70
2018-11-06T10:45:22.859Z,99688.45
2018-11-06T10:47:51.013Z,99675.73
2018-11-06T10:50:19.253Z,99679.02
2018-11-06T10:52:48.121Z,99672.95
2018-11-06T10:55:16.362Z,99673.81
2018-11-06T10:57:44.602Z,99675.41
2018-11-06T11:00:19.222Z,99678.31
2018-11-06T11:02:52.805Z,99673.45
2018-11-06T11:05:22.603Z,99680.19
2018-11-06T11:07:50.842Z,99678.69
2018-11-06T11:10:19.035Z,99667.81
2018-11-06T11:12:47.233Z,99669.22
2018-11-06T11:15:15.472Z,99664.90
2018-11-06T11:17:43.764Z,99659.84
2018-11-06T11:20:13.333Z,99660.02
2018-11-06T11:22:42.069Z,99649.38
2018-11-06T11:25:12.423Z,99652.16
2018-11-06T11:27:41.067Z,99647.88
2018-11-06T11:30:11.347Z,99648.87
2018-11-06T11:32:40.452Z,99634.00
2018-11-06T11:35:08.827Z,99633.53
2018-11-06T11:37:37.157Z,99630.56
2018-11-06T11:40:06.939Z,99630.22
2018-11-06T11:42:35.167Z,99615.85
2018-11-06T11:45:03.359Z,99601.50
2018-11-06T11:47:31.574Z,99599.84
2018-11-06T11:49:59.796Z,99607.28
2018-11-06T11:52:28.034Z,99604.11
2018-11-06T11:54:56.334Z,99602.59
2018-11-06T11:57:24.534Z,99606.71
2018-11-06T11:59:52.873Z,99608.39
2018-11-06T12:02:21.166Z,99610.21
2018-11-06T12:04:49.493Z,99602.78
2018-11-06T12:07:17.636Z,99597.47
2018-11-06T12:09:45.956Z,99592.34
2018-11-06T12:12:14.156Z,99598.98
2018-11-06T12:14:42.416Z,99594.84
2018-11-06T12:17:10.798Z,99599.62
2018-11-06T12:19:39.077Z,99591.52
2018-11-06T12:22:07.690Z,99592.19
2018-11-06T12:24:36.390Z,99590.52
2018-11-06T12:27:04.756Z,99590.84
2018-11-06T12:29:33.037Z,99589.35
2018-11-06T12:32:01.159Z,99592.34
2018-11-06T12:34:29.428Z,99590.36
2018-11-06T12:36:57.746Z,99591.84
2018-11-06T12:39:26.011Z,99593.98
2018-11-06T12:41:54.616Z,99594.81
2018-11-06T12:44:22.816Z,99592.30
2018-11-06T12:46:51.056Z,99590.98
2018-11-06T12:49:19.322Z,99596.93
2018-11-06T12:51:47.533Z,99588.83
2018-11-06T12:54:15.847Z,99585.53
2018-11-06T12:56:44.219Z,99589.97
2018-11-06T12:59:12.487Z,99592.46
2018-11-06T13:01:40.751Z,99590.28
2018-11-06T13:04:09.247Z,99582.19
2018-11-06T13:06:37.878Z,99584.17
2018-11-06T13:09:08.987Z,99593.44
2018-11-06T13:11:37.798Z,99581.21
2018-11-06T13:14:06.327Z,99587.64
2018-11-06T13:16:35.996Z,99581.87
2018-11-06T13:19:06.776Z,99579.23
2018-11-06T13:21:36.088Z,99573.78
2018-11-06T13:24:09.756Z,99573.11
2018-11-06T13:26:40.723Z,99575.95
2018-11-06T13:29:09.315Z,99572.83
2018-11-06T13:31:38.023Z,99568.19
2018-11-06T13:34:07.323Z,99567.58
2018-11-06T13:36:35.783Z,99574.51
2018-11-06T13:39:07.363Z,99568.91
2018-11-06T13:41:39.195Z,99565.43
2018-11-06T13:44:14.594Z,99574.69
2018-11-06T13:46:44.109Z,99569.90
2018-11-06T13:49:12.581Z,99560.83
2018-11-06T13:51:41.001Z,99570.73
2018-11-06T13:54:09.321Z,99562.98
2018-11-06T13:56:37.741Z,99565.13
2018-11-06T13:59:07.861Z,99565.28
2018-11-06T14:01:36.309Z,99566.12
2018-11-06T14:04:05.793Z,99565.14
2018-11-06T14:06:34.234Z,99561.34
2018-11-06T14:09:02.707Z,99563.00
2018-11-06T14:11:32.075Z,99561.20
2018-11-06T14:14:00.346Z,99565.81
2018-11-06T14:16:29.851Z,99568.80
2018-11-06T14:18:58.331Z,99566.48
2018-11-06T14:21:27.703Z,99573.09
2018-11-06T14:23:57.363Z,99572.58
2018-11-06T14:26:26.002Z,99569.62
2018-11-06T14:28:56.014Z,99567.46
2018-11-06T14:31:25.212Z,99573.23
2018-11-06T14:33:56.263Z,99568.13
2018-11-06T14:36:24.431Z,99568.13
2018-11-06T14:38:52.671Z,99565.31
2018-11-06T14:41:21.023Z,99565.47
2018-11-06T14:43:49.242Z,99561.34
2018-11-06T14:46:17.523Z,99560.52
2018-11-06T14:48:45.817Z,99572.08
2018-11-06T14:51:14.198Z,99568.08
2018-11-06T14:53:42.427Z,99563.42
2018-11-06T14:56:10.854Z,99562.59
2018-11-06T14:58:38.966Z,99558.76
2018-11-06T15:01:07.205Z,99562.05
2018-11-06T15:03:35.297Z,99561.03
2018-11-06T15:06:03.498Z,99566.42
2018-11-06T15:08:31.866Z,99560.13
2018-11-06T15:10:59.918Z,99559.94
2018-11-06T15:13:28.265Z,99558.27
2018-11-06T15:15:56.441Z,99561.00
2018-11-06T15:18:24.666Z,99557.14
2018-11-06T15:20:52.989Z,99563.31
2018-11-06T15:23:21.366Z,99558.19
2018-11-06T15:25:49.488Z,99555.97
2018-11-06T15:28:17.734Z,99556.69
2018-11-06T15:30:45.927Z,99566.23
2018-11-06T15:33:14.166Z,99563.09
2018-11-06T15:35:42.347Z,99567.32
2018-11-06T15:38:10.886Z,99568.59
2018-11-06T15:40:39.106Z,99565.27
2018-11-06T15:43:07.386Z,99569.39
2018-11-06T15:45:35.577Z,99570.22
2018-11-06T15:48:03.925Z,99568.45
2018-11-06T15:50:32.097Z,99570.25
2018-11-06T15:53:00.331Z,99564.60
2018-11-06T15:55:28.590Z,99566.48
2018-11-06T15:57:56.790Z,99559.68
2018-11-06T16:00:25.033Z,99563.85
2018-11-06T16:02:53.670Z,99559.63
2018-11-06T16:05:21.896Z,99554.61
2018-11-06T16:07:50.449Z,99550.27
2018-11-06T16:10:21.772Z,99552.68
2018-11-06T16:12:50.249Z,99553.25
2018-11-06T16:15:18.501Z,99548.69
2018-11-06T16:17:46.973Z,99555.33
2018-11-06T16:20:17.449Z,99550.19
2018-11-06T16:22:45.749Z,99555.12
2018-11-06T16:25:14.973Z,99557.31
2018-11-06T16:27:43.621Z,99561.68
2018-11-06T16:30:15.964Z,99561.81
2018-11-06T16:32:44.321Z,99564.44
2018-11-06T16:35:13.817Z,99561.97
2018-11-06T16:37:42.472Z,99560.67
2018-11-06T16:40:11.316Z,99563.27
2018-11-06T16:42:40.273Z,99567.70
2018-11-06T16:45:10.921Z,99574.06
2018-11-06T16:47:39.215Z,99580.55
2018-11-06T16:50:08.658Z,99582.03
2018-11-06T16:52:36.966Z,99577.39
2018-11-06T16:55:05.460Z,99580.72
2018-11-06T16:57:33.666Z,99588.06
2018-11-06T17:00:02.042Z,99588.91
2018-11-06T17:02:30.140Z,99590.14
2018-11-06T17:04:58.387Z,99587.24
2018-11-06T17:07:26.627Z,99590.84
2018-11-06T17:09:54.793Z,99589.39
2018-11-06T17:12:22.973Z,99585.53
2018-11-06T17:14:51.147Z,99590.37
2018-11-06T17:17:19.313Z,99584.70
2018-11-06T17:19:47.552Z,99585.53
2018-11-06T17:22:15.818Z,99590.48
2018-11-06T17:24:44.031Z,99585.78
2018-11-06T17:27:12.218Z,99585.02
2018-11-06T17:29:40.430Z,99586.67
2018-11-06T17:32:08.643Z,99587.58
2018-11-06T17:34:36.960Z,99578.61
2018-11-06T17:37:05.618Z,99581.77
2018-11-06T17:39:34.015Z,99586.03
2018-11-06T17:42:02.247Z,99580.36
2018-11-06T17:44:30.503Z,99591.45
2018-11-06T17:46:58.455Z,99599.69
2018-11-06T17:49:26.540Z,99591.73
2018-11-06T17:51:54.549Z,99589.05
2018-11-06T17:54:22.628Z,99587.73
2018-11-06T17:56:50.647Z,99589.98
2018-11-06T17:59:18.748Z,99585.78
2018-11-06T18:01:46.747Z,99585.62
2018-11-06T18:04:14.886Z,99584.37
2018-11-06T18:06:42.790Z,99579.27
2018-11-06T18:09:12.294Z,99584.64
2018-11-06T18:11:40.319Z,99578.14
2018-11-06T18:14:08.492Z,99572.17
2018-11-06T18:16:36.671Z,99573.12
2018-11-06T18:19:04.962Z,99565.80
2018-11-06T18:21:33.212Z,99570.45
2018-11-06T18:24:01.480Z,99567.92
2018-11-06T18:26:29.812Z,99564.72
2018-11-06T18:28:58.100Z,99562.97
2018-11-06T18:31:26.337Z,99568.09
2018-11-06T18:33:54.812Z,99556.69
2018-11-06T18:36:23.169Z,99555.09
2018-11-06T18:38:51.599Z,99551.59
2018-11-06T18:41:20.027Z,99550.14
2018-11-06T18:43:48.617Z,99555.69
2018-11-06T18:46:16.985Z,99554.54
2018-11-06T18:48:45.494Z,99550.17
2018-11-06T18:51:13.873Z,99549.45
2018-11-06T18:53:42.341Z,99548.03
2018-11-06T18:56:10.714Z,99553.20
2018-11-06T18:58:39.163Z,99554.36
2018-11-06T19:01:07.549Z,99546.61
2018-11-06T19:03:36.618Z,99544.75
2018-11-06T19:06:05.144Z,99550.66
2018-11-06T19:08:33.517Z,99546.89
2018-11-06T19:11:02.037Z,99543.80
2018-11-06T19:13:30.447Z,99541.70
2018-11-06T19:15:58.854Z,99538.48
2018-11-06T19:18:27.230Z,99532.80
2018-11-06T19:20:55.637Z,99539.83
2018-11-06T19:23:24.150Z,99543.45
2018-11-06T19:25:52.630Z,99549.28
2018-11-06T19:28:21.049Z,99555.94
2018-11-06T19:30:49.597Z,99547.94
2018-11-06T19:33:18.096Z,99546.78
2018-11-06T19:35:47.236Z,99557.59
2018-11-06T19:38:15.775Z,99547.01
2018-11-06T19:40:44.412Z,99559.91
2018-11-06T19:43:12.893Z,99556.42
2018-11-06T19:45:41.498Z,99553.55
2018-11-06T19:48:10.175Z,99551.78
2018-11-06T19:50:38.728Z,99554.21
2018-11-06T19:53:07.162Z,99552.84
2018-11-06T19:55:35.691Z,99545.73
2018-11-06T19:58:05.480Z,99550.48
2018-11-06T20:00:34.556Z,99548.44
2018-11-06T20:03:03.500Z,99546.31
2018-11-06T20:05:32.840Z,99547.64
2018-11-06T20:08:01.438Z,99556.34
2018-11-06T20:10:30.398Z,99569.30
2018-11-06T20:12:59.592Z,99577.33
2018-11-06T20:15:28.507Z,99580.20
2018-11-06T20:17:58.077Z,99585.66
2018-11-06T20:20:28.077Z,99587.91
2018-11-06T20:22:57.278Z,99588.28
2018-11-06T20:25:26.258Z,99588.28
2018-11-06T20:27:55.202Z,99589.23
2018-11-06T20:30:25.113Z,99587.49
2018-11-06T20:32:55.106Z,99582.47
2018-11-06T20:35:23.754Z,99583.57
2018-11-06T20:37:53.035Z,99585.02
2018-11-06T20:40:23.852Z,99575.87
2018-11-06T20:42:53.046Z,99580.02
2018-11-06T20:45:22.864Z,99587.41
2018-11-06T20:47:51.754Z,99583.83
2018-11-06T20:50:22.015Z,99586.81
2018-11-06T20:52:50.891Z,99591.92
2018-11-06T20:55:19.853Z,99597.87
2018-11-06T20:57:51.720Z,99591.88
2018-11-06T21:00:23.964Z,99589.54
2018-11-06T21:02:53.981Z,99590.92
2018-11-06T21:05:22.646Z,99593.00
2018-11-06T21:07:51.212Z,99593.60
2018-11-06T21:10:21.327Z,99594.91
2018-11-06T21:12:49.856Z,99591.42
2018-11-06T21:15:18.455Z,99585.98
2018-11-06T21:17:47.018Z,99590.84
2018-11-06T21:20:16.218Z,99588.71
2018-11-06T21:22:44.580Z,99584.28
2018-11-06T21:25:13.177Z,99592.06
2018-11-06T21:27:42.268Z,99593.61
2018-11-06T21:30:13.152Z,99595.53
2018-11-06T21:32:42.717Z,99594.36
2018-11-06T21:35:11.213Z,99590.94
2018-11-06T21:37:40.063Z,99580.70
2018-11-06T21:40:10.522Z,99582.11
2018-11-06T21:42:38.800Z,99583.55
2018-11-06T21:45:08.071Z,99586.02
2018-11-06T21:47:36.196Z,99584.70
2018-11-06T21:50:05.240Z,99583.30
2018-11-06T21:52:33.407Z,99579.27
2018-11-06T21:55:01.424Z,99583.32
2018-11-06T21:57:29.588Z,99574.64
2018-11-06T21:59:57.687Z,99571.77
2018-11-06T22:02:25.739Z,99570.11
2018-11-06T22:04:53.728Z,99569.63
2018-11-06T22:07:21.883Z,99567.06
2018-11-06T22:09:50.102Z,99572.98
2018-11-06T22:12:19.247Z,99570.27
2018-11-06T22:14:48.153Z,99570.94
2018-11-06T22:17:17.513Z,99568.46
2018-11-06T22:19:45.628Z,99569.67
2018-11-06T22:22:13.716Z,99571.37
2018-11-06T22:24:41.718Z,99562.23
2018-11-06T22:27:09.781Z,99562.35
2018-11-06T22:29:37.764Z,99562.83
2018-11-06T22:32:05.852Z,99551.06
2018-11-06T22:34:33.904Z,99559.74
2018-11-06T22:37:02.062Z,99558.53
2018-11-06T22:39:30.069Z,99562.55
2018-11-06T22:41:58.114Z,99561.23
2018-11-06T22:44:26.104Z,99569.43
2018-11-06T22:46:54.146Z,99576.08
2018-11-06T22:49:22.249Z,99582.34
2018-11-06T22:51:50.272Z,99584.69
2018-11-06T22:54:18.254Z,99586.81
2018-11-06T22:56:46.666Z,99580.23
2018-11-06T22:59:14.633Z,99585.94
2018-11-06T23:01:42.694Z,99586.85
2018-11-06T23:04:10.666Z,99584.02
2018-11-06T23:06:38.773Z,99578.82
2018-11-06T23:09:08.933Z,99574.44
2018-11-06T23:11:37.068Z,99586.05
2018-11-06T23:14:05.193Z,99582.73
2018-11-06T23:16:33.253Z,99580.97
2018-11-06T23:19:01.265Z,99579.29
2018-11-06T23:21:29.415Z,99584.52
2018-11-06T23:23:57.452Z,99582.72
2018-11-06T23:26:25.559Z,99579.20
2018-11-06T23:28:53.596Z,99587.05
2018-11-06T23:31:21.618Z,99580.66
2018-11-06T23:33:49.665Z,99587.56
2018-11-06T23:36:17.732Z,99587.94
2018-11-06T23:38:45.801Z,99580.43
2018-11-06T23:41:13.870Z,99590.05
2018-11-06T23:43:41.940Z,99578.75
2018-11-06T23:46:09.920Z,99584.24
2018-11-06T23:48:37.925Z,99587.00
2018-11-06T23:51:06.000Z,99589.28
2018-11-06T23:53:34.012Z,99589.42
2018-11-06T23:56:01.970Z,99585.61
2018-11-06T23:58:29.967Z,99587.71
